Time;durP1;ratioP1;P1;durP2;ratioP2;P2;SDS_P1;SDS_P2;PMS_P1;PMS_P2;Temp;Humidity;BMP_temperature;BMP_pressure;BME280_temperature;BME280_humidity;BME280_pressure;Samples;Min_cycle;Max_cycle;Signal;HPM_P1;HPM_P2
2023/09/05 00:02:36;;;;;;;4.00;3.58;;;;;16.00;97155.00;;;;8211753;28;20227;-64
2023/09/05 00:06:39;;;;;;;4.05;3.47;;;;;15.90;97158.00;;;;8212916;28;20287;-64
2023/09/05 00:10:48;;;;;;;4.07;3.65;;;;;15.80;97154.00;;;;8207160;28;20230;-64
2023/09/05 00:14:51;;;;;;;4.57;4.18;;;;;15.60;97152.00;;;;8214228;28;20206;-64
2023/09/05 00:18:57;;;;;;;4.68;3.35;;;;;15.40;97152.00;;;;8217791;28;20198;-64
2023/09/05 00:23:00;;;;;;;6.38;3.88;;;;;15.30;97147.00;;;;8210582;28;20199;-64
2023/09/05 00:27:09;;;;;;;7.18;3.97;;;;;15.30;97145.00;;;;8224122;28;20263;-65
2023/09/05 00:31:14;;;;;;;4.72;3.95;;;;;15.30;97140.00;;;;8218977;28;20200;-65
2023/09/05 00:35:17;;;;;;;6.05;3.88;;;;;15.10;97131.00;;;;8217994;28;20199;-65
2023/09/05 00:39:20;;;;;;;4.55;3.85;;;;;15.00;97127.00;;;;8222004;28;20202;-65
2023/09/05 00:43:27;;;;;;;6.30;4.00;;;;;14.90;97122.00;;;;8224115;28;20206;-65
2023/09/05 00:47:33;;;;;;;7.70;3.40;;;;;14.90;97114.00;;;;8219578;28;20293;-64
2023/09/05 00:51:42;;;;;;;4.45;3.58;;;;;14.80;97115.00;;;;8220102;28;20204;-65
2023/09/05 00:55:50;;;;;;;7.97;3.60;;;;;14.80;97115.00;;;;8220894;28;20642;-65
2023/09/05 00:59:55;;;;;;;5.47;4.00;;;;;14.70;97119.00;;;;8221544;28;20249;-65
2023/09/05 01:04:02;;;;;;;4.80;3.85;;;;;14.60;97111.00;;;;8210987;28;20238;-65
2023/09/05 01:08:10;;;;;;;4.43;3.47;;;;;14.70;97113.00;;;;8220338;28;20285;-64
2023/09/05 01:12:14;;;;;;;4.47;3.47;;;;;14.80;97112.00;;;;8222591;28;20203;-65
2023/09/05 01:16:18;;;;;;;5.57;3.20;;;;;15.00;97113.00;;;;8219680;28;20680;-64
2023/09/05 01:20:26;;;;;;;4.28;3.17;;;;;15.20;97111.00;;;;8214697;28;20196;-64
2023/09/05 01:24:38;;;;;;;3.97;2.95;;;;;15.30;97118.00;;;;8217146;28;20238;-64
2023/09/05 01:28:44;;;;;;;6.72;3.35;;;;;15.30;97111.00;;;;8218190;28;20199;-64
2023/09/05 01:32:52;;;;;;;3.25;2.95;;;;;15.30;97113.00;;;;8219555;28;20199;-64
2023/09/05 01:36:55;;;;;;;5.60;3.72;;;;;15.30;97111.00;;;;8219812;28;20681;-64
2023/09/05 01:41:02;;;;;;;4.03;2.90;;;;;15.20;97114.00;;;;8214068;28;20287;-64
2023/09/05 01:45:09;;;;;;;4.07;3.00;;;;;15.20;97114.00;;;;8224407;28;20677;-64
2023/09/05 01:49:13;;;;;;;3.63;2.83;;;;;15.20;97112.00;;;;8218275;28;20610;-64
2023/09/05 01:53:23;;;;;;;3.97;3.20;;;;;15.30;97107.00;;;;8211658;28;20214;-64
2023/09/05 01:57:32;;;;;;;3.25;2.83;;;;;15.30;97106.00;;;;8227255;28;20205;-65
2023/09/05 02:01:37;;;;;;;4.72;2.90;;;;;15.40;97101.00;;;;8225867;28;20238;-64
2023/09/05 02:05:42;;;;;;;3.58;2.90;;;;;15.40;97108.00;;;;8230504;28;20265;-64
2023/09/05 02:09:45;;;;;;;8.50;3.72;;;;;15.40;97108.00;;;;8219438;28;20211;-64
2023/09/05 02:13:50;;;;;;;5.80;2.85;;;;;15.40;97105.00;;;;8207818;28;20653;-64
2023/09/05 02:17:55;;;;;;;4.53;3.17;;;;;15.40;97104.00;;;;8217605;28;20289;-64
2023/09/05 02:22:02;;;;;;;12.60;4.03;;;;;15.40;97100.00;;;;8205221;28;20215;-64
2023/09/05 02:26:05;;;;;;;8.07;3.20;;;;;15.40;97101.00;;;;8204849;28;20242;-64
2023/09/05 02:30:12;;;;;;;4.22;2.95;;;;;15.30;97091.00;;;;8213011;28;20299;-64
2023/09/05 02:34:17;;;;;;;4.72;2.92;;;;;15.30;97100.00;;;;8196131;28;20574;-64
2023/09/05 02:38:20;;;;;;;7.10;2.88;;;;;15.30;97099.00;;;;8221245;28;20881;-63
2023/09/05 02:42:23;;;;;;;7.03;3.40;;;;;15.30;97098.00;;;;8216295;28;20250;-63
2023/09/05 02:46:30;;;;;;;9.15;2.95;;;;;15.20;97092.00;;;;8222930;28;20230;-63
2023/09/05 02:50:34;;;;;;;4.22;3.35;;;;;15.20;97095.00;;;;8205069;28;20198;-63
2023/09/05 02:54:41;;;;;;;4.60;3.13;;;;;15.10;97090.00;;;;8224509;28;20214;-63
2023/09/05 02:58:44;;;;;;;6.25;3.45;;;;;15.10;97089.00;;;;8226765;28;20798;-63
2023/09/05 03:02:52;;;;;;;4.75;3.17;;;;;15.10;97088.00;;;;8269891;23;20232;-63
2023/09/05 03:06:56;;;;;;;5.78;3.60;;;;;15.00;97089.00;;;;8208790;28;20766;-63
2023/09/05 03:11:01;;;;;;;3.72;2.92;;;;;15.00;97098.00;;;;8218314;28;20248;-63
2023/09/05 03:15:06;;;;;;;4.10;3.38;;;;;15.00;97093.00;;;;8216823;28;20195;-64
2023/09/05 03:19:11;;;;;;;3.78;3.42;;;;;15.00;97088.00;;;;8231468;28;20202;-63
2023/09/05 03:23:15;;;;;;;3.85;3.08;;;;;14.90;97088.00;;;;8224201;28;20669;-64
2023/09/05 03:27:19;;;;;;;4.35;3.55;;;;;14.80;97092.00;;;;8223447;28;20231;-65
2023/09/05 03:31:22;;;;;;;3.88;3.50;;;;;14.80;97097.00;;;;8206446;28;20296;-64
2023/09/05 03:35:28;;;;;;;3.83;3.28;;;;;14.70;97095.00;;;;8196963;28;20238;-64
2023/09/05 03:39:35;;;;;;;4.43;3.28;;;;;14.70;97095.00;;;;8196922;28;20215;-65
2023/09/05 03:43:41;;;;;;;5.38;3.30;;;;;14.60;97091.00;;;;8198391;28;20271;-65
2023/09/05 03:47:44;;;;;;;3.67;3.00;;;;;14.60;97091.00;;;;8210128;28;20322;-64
2023/09/05 03:52:05;;;;;;;8.18;2.97;;;;;14.50;97091.00;;;;8213107;28;21112;-65
2023/09/05 03:56:10;;;;;;;7.20;3.20;;;;;14.50;97090.00;;;;8207182;28;20218;-65
2023/09/05 04:00:13;;;;;;;4.40;3.28;;;;;14.50;97095.00;;;;8209598;28;20226;-65
2023/09/05 04:04:23;;;;;;;9.85;3.42;;;;;14.50;97087.00;;;;8200635;28;20243;-65
2023/09/05 04:08:27;;;;;;;5.88;3.70;;;;;14.50;97089.00;;;;8186235;28;20783;-65
2023/09/05 04:12:32;;;;;;;4.32;3.05;;;;;14.50;97094.00;;;;8198313;28;20290;-65
2023/09/05 04:16:46;;;;;;;6.20;3.20;;;;;14.40;97086.00;;;;8193161;28;20202;-65
2023/09/05 04:20:56;;;;;;;3.28;2.97;;;;;14.40;97085.00;;;;8198555;28;20200;-65
2023/09/05 04:25:01;;;;;;;5.63;3.25;;;;;14.40;97087.00;;;;8185697;28;20211;-64
2023/09/05 04:29:05;;;;;;;4.82;3.28;;;;;14.30;97086.00;;;;8188523;28;20199;-64
2023/09/05 04:33:09;;;;;;;4.63;3.35;;;;;14.30;97091.00;;;;8189562;28;20215;-65
2023/09/05 04:37:12;;;;;;;4.60;3.55;;;;;14.30;97101.00;;;;8187629;28;20266;-65
2023/09/05 04:41:16;;;;;;;6.72;3.95;;;;;14.30;97097.00;;;;8186566;28;20211;-64
2023/09/05 04:45:25;;;;;;;4.20;3.13;;;;;14.30;97104.00;;;;8183728;28;20216;-64
2023/09/05 04:49:28;;;;;;;4.10;3.15;;;;;14.20;97104.00;;;;8191926;28;20253;-64
2023/09/05 04:53:33;;;;;;;3.88;3.03;;;;;14.20;97113.00;;;;8189772;28;20204;-64
2023/09/05 04:57:38;;;;;;;4.53;3.30;;;;;14.10;97107.00;;;;8186887;28;20214;-64
2023/09/05 05:01:48;;;;;;;6.38;3.30;;;;;14.00;97107.00;;;;8184380;28;20210;-63
2023/09/05 05:05:51;;;;;;;4.75;3.70;;;;;14.00;97109.00;;;;8197490;28;20315;-64
2023/09/05 05:10:03;;;;;;;7.63;3.42;;;;;13.90;97104.00;;;;8193669;28;20261;-65
2023/09/05 05:14:07;;;;;;;6.90;3.65;;;;;13.90;97113.00;;;;8175556;28;20207;-64
2023/09/05 05:18:10;;;;;;;4.05;2.97;;;;;14.00;97117.00;;;;8193655;28;20939;-65
2023/09/05 05:22:16;;;;;;;5.13;3.10;;;;;14.20;97128.00;;;;8186303;28;20282;-64
2023/09/05 05:26:20;;;;;;;4.95;3.13;;;;;14.30;97115.00;;;;8196758;28;20255;-64
2023/09/05 05:30:24;;;;;;;4.63;3.40;;;;;14.50;97122.00;;;;8195913;28;20279;-64
2023/09/05 05:34:28;;;;;;;5.97;3.20;;;;;14.70;97122.00;;;;8189062;28;20204;-64
2023/09/05 05:38:33;;;;;;;4.45;3.13;;;;;14.80;97116.00;;;;8201341;28;20232;-64
2023/09/05 05:42:37;;;;;;;7.95;3.20;;;;;14.90;97117.00;;;;8194358;28;20628;-64
2023/09/05 05:46:48;;;;;;;3.10;2.90;;;;;15.00;97116.00;;;;8175978;28;20228;-64
2023/09/05 05:50:55;;;;;;;3.28;2.92;;;;;15.20;97111.00;;;;8192724;28;20206;-64
2023/09/05 05:54:59;;;;;;;3.28;3.00;;;;;15.20;97103.00;;;;8191568;28;20200;-64
2023/09/05 05:59:03;;;;;;;3.30;3.00;;;;;15.30;97099.00;;;;8199300;28;20286;-64
2023/09/05 06:03:11;;;;;;;3.15;2.85;;;;;15.40;97110.00;;;;8189270;28;20642;-64
2023/09/05 06:07:14;;;;;;;5.22;3.00;;;;;15.50;97110.00;;;;8171800;28;20240;-64
2023/09/05 06:11:17;;;;;;;6.22;3.30;;;;;15.60;97107.00;;;;8183107;28;21001;-64
2023/09/05 06:15:22;;;;;;;3.65;3.28;;;;;15.80;97110.00;;;;8188701;28;20206;-64
2023/09/05 06:19:31;;;;;;;5.78;3.35;;;;;15.90;97108.00;;;;8187351;28;20578;-64
2023/09/05 06:23:35;;;;;;;5.43;3.40;;;;;16.10;97097.00;;;;8189229;28;20208;-64
2023/09/05 06:27:39;;;;;;;5.65;2.90;;;;;16.20;97103.00;;;;8187921;28;20314;-64
2023/09/05 06:31:47;;;;;;;4.95;2.90;;;;;16.40;97106.00;;;;8176785;28;20271;-64
2023/09/05 06:35:52;;;;;;;5.28;2.83;;;;;16.50;97110.00;;;;8188162;28;20713;-64
2023/09/05 06:39:55;;;;;;;4.45;3.20;;;;;16.70;97112.00;;;;8190841;28;20203;-64
2023/09/05 06:43:58;;;;;;;3.83;2.85;;;;;16.90;97116.00;;;;8190998;28;20226;-64
2023/09/05 06:48:02;;;;;;;4.38;2.92;;;;;17.00;97116.00;;;;8186469;28;20228;-64
2023/09/05 06:52:09;;;;;;;6.93;3.40;;;;;17.10;97113.00;;;;8184080;28;20202;-65
2023/09/05 06:56:12;;;;;;;3.30;3.00;;;;;17.30;97125.00;;;;8183006;28;20200;-63
2023/09/05 07:00:15;;;;;;;3.92;3.15;;;;;17.50;97123.00;;;;8186011;28;20212;-63
2023/09/05 07:04:19;;;;;;;4.60;3.15;;;;;17.60;97120.00;;;;8172723;28;20257;-64
2023/09/05 07:08:26;;;;;;;5.38;3.25;;;;;17.80;97115.00;;;;8187072;28;20224;-64
2023/09/05 07:12:29;;;;;;;5.57;3.60;;;;;18.00;97100.00;;;;8187261;28;20213;-64
2023/09/05 07:16:34;;;;;;;5.28;3.28;;;;;18.20;97109.00;;;;8188203;28;20319;-64
2023/09/05 07:20:38;;;;;;;9.55;3.67;;;;;18.50;97101.00;;;;8185969;28;20204;-64
2023/09/05 07:24:46;;;;;;;5.90;3.33;;;;;18.80;97110.00;;;;8184019;28;20275;-64
2023/09/05 07:28:50;;;;;;;3.47;3.13;;;;;19.10;97113.00;;;;8183406;28;20664;-64
2023/09/05 07:32:53;;;;;;;4.35;3.38;;;;;19.40;97105.00;;;;8183654;28;20200;-64
2023/09/05 07:36:56;;;;;;;5.70;3.25;;;;;19.90;97103.00;;;;8183553;28;20228;-64
2023/09/05 07:41:09;;;;;;;7.07;3.67;;;;;20.30;97122.00;;;;8183647;28;20231;-64
2023/09/05 07:45:13;;;;;;;5.25;3.08;;;;;20.80;97118.00;;;;8182958;28;20196;-64
2023/09/05 07:49:19;;;;;;;8.13;3.63;;;;;21.20;97123.00;;;;8182637;28;20259;-64
2023/09/05 07:53:22;;;;;;;7.28;3.55;;;;;21.60;97120.00;;;;8181625;28;20677;-64
2023/09/05 07:57:27;;;;;;;7.03;3.15;;;;;21.80;97113.00;;;;8183183;28;20295;-62
2023/09/05 08:01:37;;;;;;;7.18;3.33;;;;;22.10;97120.00;;;;8182605;28;20200;-64
2023/09/05 08:05:43;;;;;;;5.45;3.20;;;;;22.60;97111.00;;;;8181703;28;20334;-64
2023/09/05 08:09:47;;;;;;;5.38;3.20;;;;;23.30;97120.00;;;;8182190;28;20523;-63
2023/09/05 08:13:51;;;;;;;9.00;3.65;;;;;24.00;97120.00;;;;8187452;28;20205;-63
2023/09/05 08:17:56;;;;;;;5.85;3.67;;;;;24.60;97125.00;;;;8189390;28;20214;-63
2023/09/05 08:22:00;;;;;;;3.72;2.95;;;;;25.00;97115.00;;;;8191991;28;20573;-63
2023/09/05 08:26:05;;;;;;;5.35;2.97;;;;;25.40;97103.00;;;;8187369;28;20211;-63
2023/09/05 08:30:13;;;;;;;4.55;3.33;;;;;25.90;97107.00;;;;8187686;28;21022;-63
2023/09/05 08:34:16;;;;;;;6.72;2.65;;;;;25.90;97109.00;;;;8188371;28;20232;-63
2023/09/05 08:38:20;;;;;;;4.10;2.60;;;;;26.00;97116.00;;;;8190286;28;20203;-63
2023/09/05 08:42:34;;;;;;;3.05;2.53;;;;;26.30;97119.00;;;;8193811;28;20209;-63
2023/09/05 08:46:43;;;;;;;6.22;3.00;;;;;26.50;97111.00;;;;8197182;28;20256;-63
2023/09/05 08:50:48;;;;;;;5.50;2.92;;;;;26.70;97115.00;;;;8197255;28;20654;-64
2023/09/05 08:54:52;;;;;;;3.63;2.90;;;;;26.80;97102.00;;;;8183928;28;20196;-64
2023/09/05 08:58:57;;;;;;;6.28;2.60;;;;;27.00;97101.00;;;;8186032;28;20664;-64
2023/09/05 09:03:07;;;;;;;5.78;2.70;;;;;27.10;97111.00;;;;8181758;28;20311;-64
2023/09/05 09:07:12;;;;;;;3.50;2.72;;;;;27.40;97105.00;;;;8188511;28;20279;-64
2023/09/05 09:11:21;;;;;;;3.50;2.88;;;;;27.70;97096.00;;;;8188414;28;20581;-64
2023/09/05 09:15:31;;;;;;;3.33;2.88;;;;;28.10;97110.00;;;;8187724;28;20976;-64
2023/09/05 09:19:40;;;;;;;4.63;2.70;;;;;28.00;97103.00;;;;8188000;28;20296;-64
2023/09/05 09:23:45;;;;;;;3.42;2.55;;;;;28.10;97114.00;;;;8170680;28;20197;-64
2023/09/05 09:27:54;;;;;;;2.65;2.45;;;;;28.00;97111.00;;;;8185444;28;20224;-64
2023/09/05 09:32:03;;;;;;;4.93;2.85;;;;;28.20;97109.00;;;;8188121;28;20820;-64
2023/09/05 09:36:11;;;;;;;5.72;3.13;;;;;28.40;97107.00;;;;8188168;28;20220;-64
2023/09/05 09:40:16;;;;;;;5.05;3.00;;;;;28.70;97104.00;;;;8183800;28;20839;-64
2023/09/05 09:44:29;;;;;;;4.50;2.90;;;;;29.00;97092.00;;;;8196129;28;20196;-65
2023/09/05 09:48:36;;;;;;;6.82;2.90;;;;;29.20;97095.00;;;;8175045;28;20232;-64
2023/09/05 09:52:46;;;;;;;4.45;2.88;;;;;29.10;97097.00;;;;8194956;28;20196;-64
2023/09/05 09:56:50;;;;;;;3.47;2.80;;;;;29.50;97087.00;;;;8196764;28;20200;-65
2023/09/05 10:00:55;;;;;;;3.50;3.20;;;;;29.50;97071.00;;;;8198040;28;20203;-64
2023/09/05 10:05:02;;;;;;;4.35;3.33;;;;;29.00;97093.00;;;;8190619;28;21682;-64
2023/09/05 10:09:07;;;;;;;4.93;3.38;;;;;29.20;97091.00;;;;8173306;28;20230;-64
2023/09/05 10:13:14;;;;;;;4.13;3.55;;;;;29.20;97088.00;;;;8196378;28;20969;-64
2023/09/05 10:17:21;;;;;;;4.60;2.97;;;;;29.20;97073.00;;;;8194502;28;20645;-64
2023/09/05 10:21:26;;;;;;;4.40;3.15;;;;;29.30;97067.00;;;;8196376;28;20207;-64
2023/09/05 10:25:31;;;;;;;3.58;3.22;;;;;29.30;97070.00;;;;8192887;28;20203;-65
2023/09/05 10:29:35;;;;;;;4.43;3.30;;;;;29.20;97073.00;;;;8195352;28;20228;-66
2023/09/05 10:33:42;;;;;;;4.20;3.10;;;;;29.20;97067.00;;;;8196028;28;20212;-65
2023/09/05 10:37:51;;;;;;;3.97;3.47;;;;;29.20;97062.00;;;;8192934;28;20299;-63
2023/09/05 10:41:56;;;;;;;6.70;3.22;;;;;29.10;97062.00;;;;8186503;28;20208;-64
2023/09/05 10:46:01;;;;;;;6.68;3.03;;;;;29.10;97046.00;;;;8183594;28;20290;-64
2023/09/05 10:50:06;;;;;;;4.65;3.58;;;;;29.20;97050.00;;;;8167188;28;20325;-64
2023/09/05 10:54:27;;;;;;;3.42;3.13;;;;;29.20;97042.00;;;;8192424;28;20250;-64
2023/09/05 10:58:40;;;;;;;3.30;3.00;;;;;29.40;97037.00;;;;8168692;28;20200;-64
2023/09/05 11:02:48;;;;;;;4.10;2.85;;;;;28.90;97035.00;;;;8182728;28;20990;-65
2023/09/05 11:07:07;;;;;;;4.05;2.97;;;;;28.10;97035.00;;;;8195116;28;20200;-65
2023/09/05 11:11:23;;;;;;;4.90;3.45;;;;;27.80;97041.00;;;;8200663;28;20306;-65
2023/09/05 11:15:33;;;;;;;6.95;2.88;;;;;27.90;97033.00;;;;8201953;28;20214;-64
2023/09/05 11:19:40;;;;;;;3.20;2.88;;;;;28.10;97029.00;;;;8192017;28;20649;-65
2023/09/05 11:23:52;;;;;;;3.28;2.97;;;;;28.40;97030.00;;;;8185930;28;20634;-65
2023/09/05 11:28:02;;;;;;;3.30;2.90;;;;;28.80;97032.00;;;;8184723;28;20241;-65
2023/09/05 11:32:12;;;;;;;4.18;3.22;;;;;28.60;97030.00;;;;8193309;28;20200;-65
2023/09/05 11:36:15;;;;;;;4.50;3.30;;;;;28.20;97023.00;;;;8188674;28;20196;-65
2023/09/05 11:40:25;;;;;;;3.05;2.85;;;;;28.10;97027.00;;;;8178654;28;20226;-65
2023/09/05 11:44:38;;;;;;;3.25;2.95;;;;;27.60;97018.00;;;;8187621;28;20200;-65
2023/09/05 11:48:45;;;;;;;2.97;2.78;;;;;27.60;97010.00;;;;8194096;28;20222;-65
2023/09/05 11:52:52;;;;;;;3.47;3.17;;;;;27.70;97011.00;;;;8170984;28;20829;-65
2023/09/05 11:57:02;;;;;;;4.13;3.25;;;;;27.40;96998.00;;;;8172239;28;20226;-65
2023/09/05 12:01:08;;;;;;;4.65;3.22;;;;;27.30;96992.00;;;;8191017;28;20196;-65
2023/09/05 12:05:14;;;;;;;4.03;3.33;;;;;27.10;96983.00;;;;8191059;28;20235;-65
2023/09/05 12:09:17;;;;;;;3.60;3.15;;;;;27.00;96981.00;;;;8184048;28;20767;-65
2023/09/05 12:13:21;;;;;;;4.05;3.03;;;;;26.80;96978.00;;;;8188703;28;20800;-65
2023/09/05 12:17:28;;;;;;;7.78;3.85;;;;;26.80;96973.00;;;;8197068;28;20283;-66
2023/09/05 12:21:45;;;;;;;3.85;3.28;;;;;26.70;96964.00;;;;8197614;28;20809;-66
2023/09/05 12:25:52;;;;;;;4.60;3.65;;;;;26.70;96966.00;;;;8196995;28;20207;-66
2023/09/05 12:30:01;;;;;;;3.78;3.00;;;;;26.90;96962.00;;;;8195298;28;20231;-66
2023/09/05 12:34:07;;;;;;;5.70;3.70;;;;;26.70;96950.00;;;;8196487;28;20315;-66
2023/09/05 12:38:12;;;;;;;4.10;3.42;;;;;26.60;96955.00;;;;8197942;28;20200;-65
2023/09/05 12:42:21;;;;;;;3.88;3.05;;;;;26.60;96954.00;;;;8198342;28;20192;-65
2023/09/05 12:46:24;;;;;;;3.60;3.22;;;;;26.60;96959.00;;;;8192252;28;20631;-65
2023/09/05 12:50:32;;;;;;;4.13;3.53;;;;;26.60;96956.00;;;;8199124;28;20239;-64
2023/09/05 12:54:40;;;;;;;4.75;3.25;;;;;26.60;96952.00;;;;8195341;28;20207;-65
2023/09/05 12:58:43;;;;;;;3.85;3.42;;;;;26.60;96947.00;;;;8187209;28;20243;-65
2023/09/05 13:02:49;;;;;;;3.22;2.92;;;;;26.70;96948.00;;;;8179571;28;20739;-65
2023/09/05 13:06:54;;;;;;;6.55;3.65;;;;;26.90;96936.00;;;;8179811;28;20199;-65
2023/09/05 13:11:05;;;;;;;4.93;3.50;;;;;27.00;96925.00;;;;8186500;28;20739;-64
2023/09/05 13:15:09;;;;;;;4.47;3.47;;;;;27.10;96932.00;;;;8197513;28;20222;-65
2023/09/05 13:19:16;;;;;;;5.78;3.30;;;;;27.20;96924.00;;;;8196188;28;20720;-65
2023/09/05 13:23:19;;;;;;;5.72;3.05;;;;;27.40;96922.00;;;;8190706;28;20200;-65
2023/09/05 13:27:23;;;;;;;6.22;3.50;;;;;27.60;96922.00;;;;8192450;28;20283;-65
2023/09/05 13:31:26;;;;;;;9.07;3.47;;;;;27.70;96919.00;;;;8198545;28;20257;-65
2023/09/05 13:35:31;;;;;;;6.53;3.35;;;;;27.70;96920.00;;;;8192247;28;20390;-64
2023/09/05 13:39:36;;;;;;;9.13;3.45;;;;;27.70;96915.00;;;;8192959;28;20197;-64
2023/09/05 13:43:41;;;;;;;4.80;3.17;;;;;28.10;96920.00;;;;8200852;28;20295;-65
2023/09/05 13:47:44;;;;;;;6.40;3.60;;;;;28.60;96915.00;;;;8197954;28;20286;-64
2023/09/05 13:51:48;;;;;;;3.63;3.30;;;;;29.10;96917.00;;;;8199617;28;20276;-65
2023/09/05 13:55:52;;;;;;;3.97;3.50;;;;;29.40;96919.00;;;;8200223;28;20208;-65
2023/09/05 13:59:57;;;;;;;4.35;3.22;;;;;29.60;96916.00;;;;8202638;28;20238;-65
2023/09/05 14:04:00;;;;;;;5.13;3.47;;;;;29.80;96909.00;;;;8189095;28;20259;-65
2023/09/05 14:08:07;;;;;;;4.75;3.30;;;;;30.00;96907.00;;;;8190018;28;20206;-65
2023/09/05 14:12:17;;;;;;;3.70;3.30;;;;;30.10;96903.00;;;;8185618;28;20307;-64
2023/09/05 14:16:22;;;;;;;3.28;3.00;;;;;30.30;96893.00;;;;8187581;28;20646;-64
2023/09/05 14:20:30;;;;;;;4.07;3.67;;;;;30.20;96885.00;;;;8190637;28;20258;-65
2023/09/05 14:24:34;;;;;;;4.25;3.20;;;;;30.40;96880.00;;;;8189890;28;20200;-65
2023/09/05 14:28:37;;;;;;;3.55;3.15;;;;;30.30;96887.00;;;;8183778;28;20718;-65
2023/09/05 14:32:47;;;;;;;3.60;3.30;;;;;30.00;96885.00;;;;8183947;28;20200;-65
2023/09/05 14:36:53;;;;;;;5.47;3.33;;;;;29.90;96884.00;;;;8186467;28;20540;-63
2023/09/05 14:40:58;;;;;;;4.07;3.45;;;;;29.70;96874.00;;;;8185240;28;20896;-65
2023/09/05 14:45:04;;;;;;;4.18;3.30;;;;;29.70;96883.00;;;;8189780;28;20642;-63
2023/09/05 14:49:10;;;;;;;4.75;3.78;;;;;29.70;96879.00;;;;8176084;28;20262;-65
2023/09/05 14:53:13;;;;;;;4.45;3.85;;;;;29.50;96879.00;;;;8181944;28;20259;-64
2023/09/05 14:57:19;;;;;;;6.78;3.67;;;;;29.50;96873.00;;;;8181186;28;20707;-63
2023/09/05 15:01:22;;;;;;;6.07;3.80;;;;;29.50;96873.00;;;;8187327;28;20204;-64
2023/09/05 15:05:31;;;;;;;5.18;3.58;;;;;29.60;96872.00;;;;8182271;28;20606;-64
2023/09/05 15:09:36;;;;;;;4.68;3.38;;;;;29.70;96873.00;;;;8179748;28;20220;-64
2023/09/05 15:13:39;;;;;;;4.03;3.53;;;;;29.70;96876.00;;;;8187369;28;20263;-64
2023/09/05 15:17:51;;;;;;;6.18;3.47;;;;;29.80;96866.00;;;;8173228;28;20235;-64
2023/09/05 15:21:57;;;;;;;4.00;3.45;;;;;29.90;96869.00;;;;8170381;28;20278;-64
2023/09/05 15:26:00;;;;;;;5.00;3.53;;;;;30.00;96863.00;;;;8185943;28;20219;-64
2023/09/05 15:30:04;;;;;;;3.83;3.53;;;;;29.90;96859.00;;;;8191101;28;20311;-66
2023/09/05 15:34:08;;;;;;;3.78;3.45;;;;;30.00;96860.00;;;;8192888;28;20208;-65
2023/09/05 15:38:16;;;;;;;6.10;3.90;;;;;29.90;96855.00;;;;8189989;28;20196;-66
2023/09/05 15:42:22;;;;;;;7.10;3.35;;;;;29.70;96857.00;;;;8186881;28;20196;-65
2023/09/05 15:46:27;;;;;;;4.75;3.10;;;;;29.40;96855.00;;;;8181085;28;20645;-65
2023/09/05 15:50:31;;;;;;;4.68;3.20;;;;;29.10;96854.00;;;;8195559;28;20266;-65
2023/09/05 15:54:37;;;;;;;6.13;3.28;;;;;29.00;96855.00;;;;8193264;28;20204;-65
2023/09/05 15:58:43;;;;;;;6.13;3.42;;;;;28.90;96847.00;;;;8197543;28;20204;-65
2023/09/05 16:02:50;;;;;;;3.92;3.08;;;;;28.80;96851.00;;;;8199493;28;20836;-65
2023/09/05 16:06:55;;;;;;;6.45;2.83;;;;;28.70;96847.00;;;;8194313;28;20472;-65
2023/09/05 16:11:10;;;;;;;3.65;2.80;;;;;28.90;96853.00;;;;8188754;28;20255;-65
2023/09/05 16:15:13;;;;;;;9.80;3.40;;;;;29.10;96868.00;;;;8196995;28;20318;-64
2023/09/05 16:19:18;;;;;;;4.15;3.15;;;;;29.30;96863.00;;;;8196178;28;20204;-65
2023/09/05 16:23:24;;;;;;;3.83;3.33;;;;;29.50;96860.00;;;;8203117;28;20274;-65
2023/09/05 16:27:34;;;;;;;4.25;3.20;;;;;29.70;96862.00;;;;8195799;28;20557;-64
2023/09/05 16:31:41;;;;;;;5.43;3.78;;;;;29.90;96868.00;;;;8193126;28;20965;-64
2023/09/05 16:35:46;;;;;;;4.65;2.90;;;;;30.00;96863.00;;;;8185023;28;20714;-64
2023/09/05 16:39:51;;;;;;;6.40;3.10;;;;;30.00;96860.00;;;;8193798;28;20206;-64
2023/09/05 16:43:56;;;;;;;5.78;3.45;;;;;29.80;96862.00;;;;8168155;28;20700;-64
2023/09/05 16:48:01;;;;;;;3.38;3.08;;;;;29.30;96868.00;;;;8186541;28;20801;-65
2023/09/05 16:52:09;;;;;;;6.20;3.05;;;;;28.60;96867.00;;;;8185277;28;20234;-64
2023/09/05 16:56:13;;;;;;;10.23;3.53;;;;;27.90;96856.00;;;;8177327;28;20206;-64
2023/09/05 17:00:18;;;;;;;4.43;3.08;;;;;27.20;96861.00;;;;8186529;28;20730;-64
2023/09/05 17:04:22;;;;;;;5.00;3.20;;;;;26.70;96860.00;;;;8188708;28;20242;-64
2023/09/05 17:08:26;;;;;;;4.90;3.00;;;;;26.20;96850.00;;;;8188549;28;20231;-64
2023/09/05 17:12:33;;;;;;;5.03;3.25;;;;;25.80;96861.00;;;;8189293;28;20657;-64
2023/09/05 17:16:37;;;;;;;3.63;3.15;;;;;25.40;96863.00;;;;8186634;28;20323;-64
2023/09/05 17:20:43;;;;;;;4.35;2.90;;;;;25.00;96866.00;;;;8190953;28;20200;-64
2023/09/05 17:24:46;;;;;;;3.40;3.10;;;;;24.70;96857.00;;;;8193290;28;20196;-65
2023/09/05 17:28:54;;;;;;;3.47;3.17;;;;;24.40;96862.00;;;;8194248;28;20255;-63
2023/09/05 17:33:00;;;;;;;3.85;3.47;;;;;24.10;96861.00;;;;8173536;28;21000;-64
2023/09/05 17:37:06;;;;;;;6.97;3.67;;;;;23.90;96863.00;;;;8192753;28;20204;-65
2023/09/05 17:41:10;;;;;;;5.03;3.10;;;;;23.60;96869.00;;;;8196456;28;20267;-63
2023/09/05 17:45:15;;;;;;;4.07;3.53;;;;;23.40;96876.00;;;;8193976;28;20211;-64
2023/09/05 17:49:22;;;;;;;5.15;3.45;;;;;23.30;96873.00;;;;8197082;28;20366;-64
2023/09/05 17:53:27;;;;;;;5.65;3.90;;;;;23.00;96866.00;;;;8194355;28;20235;-64
2023/09/05 17:57:31;;;;;;;4.80;3.92;;;;;22.80;96875.00;;;;8190290;28;20195;-64
2023/09/05 18:01:34;;;;;;;4.05;3.55;;;;;22.60;96879.00;;;;8188265;28;20238;-64
2023/09/05 18:05:46;;;;;;;5.30;3.65;;;;;22.40;96878.00;;;;8189710;28;20266;-64
2023/09/05 18:09:54;;;;;;;4.80;3.83;;;;;22.30;96885.00;;;;8182431;28;20230;-64
2023/09/05 18:13:58;;;;;;;8.88;4.10;;;;;22.00;96887.00;;;;8192347;28;20209;-64
2023/09/05 18:18:06;;;;;;;6.28;4.00;;;;;21.80;96888.00;;;;8194586;28;20200;-64
2023/09/05 18:22:11;;;;;;;7.65;4.10;;;;;21.60;96874.00;;;;8198341;28;20265;-64
2023/09/05 18:26:14;;;;;;;5.95;3.80;;;;;21.30;96882.00;;;;8197347;28;20300;-64
2023/09/05 18:30:18;;;;;;;7.53;3.70;;;;;21.20;96890.00;;;;8208923;28;20228;-64
2023/09/05 18:34:41;;;;;;;5.00;4.03;;;;;21.10;96898.00;;;;8199942;28;20200;-64
2023/09/05 18:38:45;;;;;;;7.75;4.38;;;;;20.90;96888.00;;;;8200119;28;20543;-64
2023/09/05 18:42:49;;;;;;;5.20;4.10;;;;;20.70;96887.00;;;;8190010;28;20722;-64
2023/09/05 18:46:55;;;;;;;4.75;4.22;;;;;20.50;96888.00;;;;8182730;28;20222;-63
2023/09/05 18:50:58;;;;;;;8.45;3.95;;;;;20.40;96889.00;;;;8186529;28;20263;-64
2023/09/05 18:55:04;;;;;;;4.53;4.10;;;;;20.30;96885.00;;;;8181984;28;20746;-65
2023/09/05 18:59:09;;;;;;;6.20;4.15;;;;;20.20;96894.00;;;;8186508;28;20259;-64
2023/09/05 19:03:13;;;;;;;6.50;4.57;;;;;20.00;96898.00;;;;8181560;28;20245;-64
2023/09/05 19:07:16;;;;;;;5.97;4.30;;;;;19.90;96892.00;;;;8183496;28;20231;-65
2023/09/05 19:11:21;;;;;;;7.60;4.40;;;;;19.70;96893.00;;;;8190187;28;20227;-65
2023/09/05 19:15:27;;;;;;;6.72;3.67;;;;;19.60;96892.00;;;;8194975;28;20748;-65
2023/09/05 19:19:31;;;;;;;9.27;4.75;;;;;19.50;96898.00;;;;8189209;28;20707;-65
2023/09/05 19:23:34;;;;;;;5.00;4.50;;;;;19.40;96905.00;;;;8192384;28;20602;-65
2023/09/05 19:27:43;;;;;;;6.75;4.80;;;;;19.20;96897.00;;;;8187855;28;20223;-65
2023/09/05 19:31:49;;;;;;;6.60;5.03;;;;;19.10;96900.00;;;;8184284;28;20998;-66
2023/09/05 19:35:53;;;;;;;6.07;4.60;;;;;19.00;96892.00;;;;8168148;28;20232;-65
2023/09/05 19:39:56;;;;;;;6.47;4.35;;;;;19.10;96888.00;;;;8188807;28;20286;-66
2023/09/05 19:44:08;;;;;;;6.75;5.15;;;;;19.20;96889.00;;;;8189854;28;20479;-66
2023/09/05 19:48:11;;;;;;;7.97;4.93;;;;;19.20;96894.00;;;;8180983;28;20211;-65
2023/09/05 19:52:18;;;;;;;5.88;4.43;;;;;19.20;96892.00;;;;8189410;28;20232;-65
2023/09/05 19:56:21;;;;;;;6.10;4.22;;;;;19.30;96883.00;;;;8189595;28;20248;-64
2023/09/05 20:00:30;;;;;;;6.93;4.47;;;;;19.30;96884.00;;;;8188151;28;20220;-64
2023/09/05 20:04:33;;;;;;;6.68;4.70;;;;;19.20;96889.00;;;;8183437;28;20230;-65
2023/09/05 20:08:37;;;;;;;9.73;5.13;;;;;19.20;96886.00;;;;8177600;28;20204;-64
2023/09/05 20:12:45;;;;;;;6.25;4.78;;;;;19.20;96885.00;;;;8185685;28;20236;-65
2023/09/05 20:16:55;;;;;;;5.63;4.53;;;;;19.10;96880.00;;;;8184050;28;20238;-64
2023/09/05 20:20:58;;;;;;;6.68;5.22;;;;;19.00;96882.00;;;;8186611;28;20205;-65
2023/09/05 20:25:06;;;;;;;5.82;5.00;;;;;18.90;96875.00;;;;8192979;28;20263;-65
2023/09/05 20:29:09;;;;;;;5.97;4.90;;;;;18.90;96881.00;;;;8181679;28;20668;-64
2023/09/05 20:33:15;;;;;;;7.38;5.43;;;;;18.80;96879.00;;;;8184302;28;20259;-64